createdAt,value
2024-03-08T00:00:20.548Z,24.93
2024-03-08T00:02:52.391Z,28.13
2024-03-08T00:05:20.773Z,25.67
2024-03-08T00:07:48.959Z,26.03
2024-03-08T00:10:18.419Z,22.73
2024-03-08T00:12:48.059Z,25.30
2024-03-08T00:15:18.915Z,26.60
2024-03-08T00:17:48.970Z,23.23
2024-03-08T00:20:20.023Z,21.50
2024-03-08T00:22:48.587Z,21.87
2024-03-08T00:25:17.547Z,22.40
2024-03-08T00:27:45.785Z,23.57
2024-03-08T00:30:16.775Z,23.57
2024-03-08T00:32:44.904Z,27.77
2024-03-08T00:35:13.994Z,25.83
2024-03-08T00:37:43.252Z,23.83
2024-03-08T00:40:12.304Z,21.83
2024-03-08T00:42:41.423Z,22.90
2024-03-08T00:45:11.832Z,21.63
2024-03-08T00:47:40.470Z,22.10
2024-03-08T00:50:09.889Z,22.83
2024-03-08T00:52:38.627Z,22.60
2024-03-08T00:55:07.032Z,21.43
2024-03-08T00:57:34.953Z,21.93
2024-03-08T01:00:09.169Z,22.37
2024-03-08T01:02:37.520Z,22.27
2024-03-08T01:05:08.860Z,22.90
2024-03-08T01:07:37.033Z,21.97
2024-03-08T01:10:11.553Z,25.63
2024-03-08T01:12:40.956Z,23.70
2024-03-08T01:15:10.081Z,25.77
2024-03-08T01:18:25.018Z,24.70
2024-03-08T01:20:53.066Z,21.97
2024-03-08T01:23:58.731Z,23.13
2024-03-08T01:26:26.645Z,22.10
2024-03-08T01:28:54.551Z,20.80
2024-03-08T01:31:22.462Z,19.83
2024-03-08T01:33:51.520Z,25.07
2024-03-08T01:36:20.646Z,23.43
2024-03-08T01:38:48.580Z,24.03
2024-03-08T01:41:18.868Z,23.63
2024-03-08T01:43:47.143Z,23.67
2024-03-08T01:46:19.086Z,24.70
2024-03-08T01:48:47.479Z,24.67
2024-03-08T01:51:16.466Z,22.83
2024-03-08T01:53:47.289Z,24.27
2024-03-08T01:56:16.807Z,22.67
2024-03-08T01:58:45.029Z,23.50
2024-03-08T02:01:16.411Z,21.43
2024-03-08T02:03:45.903Z,21.67
2024-03-08T02:06:18.509Z,22.33
2024-03-08T02:08:47.890Z,21.50
2024-03-08T02:11:17.365Z,21.77
2024-03-08T02:13:45.549Z,20.97
2024-03-08T02:16:13.487Z,19.60
2024-03-08T02:18:41.568Z,18.50
2024-03-08T02:21:10.169Z,18.37
2024-03-08T02:23:38.964Z,16.93
2024-03-08T02:26:08.662Z,16.83
2024-03-08T02:28:36.638Z,18.90
2024-03-08T02:31:09.355Z,18.80
2024-03-08T02:33:37.544Z,17.33
2024-03-08T02:36:07.803Z,16.47
2024-03-08T02:38:35.786Z,16.73
2024-03-08T02:41:05.330Z,18.30
2024-03-08T02:43:33.331Z,17.90
2024-03-08T02:46:01.397Z,17.67
2024-03-08T02:48:29.556Z,17.33
2024-03-08T02:50:57.596Z,17.60
2024-03-08T02:53:25.986Z,17.77
2024-03-08T02:55:53.955Z,19.13
2024-03-08T02:58:21.988Z,17.63
2024-03-08T03:00:50.043Z,20.47
2024-03-08T03:03:18.148Z,19.77
2024-03-08T03:05:49.028Z,17.07
2024-03-08T03:08:19.319Z,19.70
2024-03-08T03:10:47.615Z,19.57
2024-03-08T03:13:15.907Z,18.57
2024-03-08T03:15:43.876Z,20.40
2024-03-08T03:18:13.157Z,18.73
2024-03-08T03:20:44.606Z,20.27
2024-03-08T03:23:16.615Z,19.30
2024-03-08T03:25:47.540Z,19.80
2024-03-08T03:28:19.619Z,19.67
2024-03-08T03:30:48.370Z,19.17
2024-03-08T03:33:18.060Z,18.50
2024-03-08T03:35:47.258Z,18.63
2024-03-08T03:38:15.887Z,19.23
2024-03-08T03:40:46.440Z,19.30
2024-03-08T03:43:14.350Z,18.87
2024-03-08T03:45:43.363Z,17.87
2024-03-08T03:48:12.346Z,19.00
2024-03-08T03:50:41.247Z,18.63
2024-03-08T03:53:11.257Z,19.07
2024-03-08T03:55:41.451Z,18.77
2024-03-08T03:58:13.184Z,19.50
2024-03-08T04:00:42.089Z,21.53
2024-03-08T04:03:10.623Z,23.50
2024-03-08T04:05:38.812Z,22.33
2024-03-08T04:08:07.689Z,23.20
2024-03-08T04:10:35.742Z,22.13
2024-03-08T04:13:05.326Z,28.13
2024-03-08T04:15:33.297Z,28.67
2024-03-08T04:18:02.016Z,22.93
2024-03-08T04:20:30.088Z,23.73
2024-03-08T04:22:59.088Z,21.80
2024-03-08T04:25:28.199Z,21.80
2024-03-08T04:27:56.194Z,21.77
2024-03-08T04:30:24.214Z,21.97
2024-03-08T04:32:52.250Z,23.10
2024-03-08T04:35:21.598Z,23.43
2024-03-08T04:37:49.564Z,24.90
2024-03-08T04:40:17.631Z,23.93
2024-03-08T04:42:45.803Z,22.63
2024-03-08T04:45:13.805Z,22.10
2024-03-08T04:47:42.077Z,22.20
2024-03-08T04:50:10.727Z,20.83
2024-03-08T04:52:38.668Z,22.37
2024-03-08T04:55:07.225Z,21.67
2024-03-08T04:57:35.291Z,22.53
2024-03-08T05:00:10.087Z,22.70
2024-03-08T05:02:40.366Z,22.10
2024-03-08T05:05:08.870Z,25.93
2024-03-08T05:07:36.799Z,27.13
2024-03-08T05:10:05.062Z,25.70
2024-03-08T05:12:32.978Z,24.63
2024-03-08T05:15:01.768Z,23.80
2024-03-08T05:17:31.636Z,28.37
2024-03-08T05:19:59.690Z,35.20
2024-03-08T05:22:27.624Z,27.40
2024-03-08T05:24:55.704Z,24.43
2024-03-08T05:27:23.698Z,27.30
2024-03-08T05:29:51.685Z,27.37
2024-03-08T05:32:19.648Z,26.00
2024-03-08T05:34:48.185Z,23.27
2024-03-08T05:37:16.154Z,24.43
2024-03-08T05:39:45.766Z,24.53
2024-03-08T05:42:13.812Z,24.73
2024-03-08T05:44:41.986Z,26.13
2024-03-08T05:47:09.941Z,26.90
2024-03-08T05:49:38.060Z,26.00
2024-03-08T05:52:06.041Z,25.60
2024-03-08T05:54:34.440Z,23.87
2024-03-08T05:57:02.482Z,25.23
2024-03-08T05:59:30.484Z,25.40
2024-03-08T06:01:59.048Z,25.20
2024-03-08T06:04:26.983Z,26.20
2024-03-08T06:06:57.175Z,24.60
2024-03-08T06:09:28.507Z,25.43
2024-03-08T06:11:56.748Z,26.83
2024-03-08T06:14:25.052Z,27.57
2024-03-08T06:16:53.135Z,26.27
2024-03-08T06:19:21.066Z,27.07
2024-03-08T06:21:49.100Z,25.60
2024-03-08T06:24:17.248Z,26.33
2024-03-08T06:26:45.333Z,25.27
2024-03-08T06:29:14.320Z,25.60
2024-03-08T06:31:42.317Z,24.73
2024-03-08T06:34:10.688Z,25.13
2024-03-08T06:36:39.706Z,26.00
2024-03-08T06:39:11.266Z,26.80
2024-03-08T06:41:39.694Z,25.90
2024-03-08T06:44:09.600Z,25.63
2024-03-08T06:46:37.790Z,26.43
2024-03-08T06:49:05.772Z,26.80
2024-03-08T06:51:33.754Z,26.37
2024-03-08T06:54:01.937Z,26.27
2024-03-08T06:56:31.280Z,27.30
2024-03-08T06:58:59.270Z,27.93
2024-03-08T07:01:27.261Z,28.13
2024-03-08T07:03:56.774Z,30.63
2024-03-08T07:06:24.750Z,28.60
2024-03-08T07:08:52.806Z,28.80
2024-03-08T07:11:20.987Z,27.13
2024-03-08T07:13:48.874Z,26.40
2024-03-08T07:16:17.181Z,26.17
2024-03-08T07:18:45.511Z,25.40
2024-03-08T07:21:13.641Z,25.23
2024-03-08T07:23:47.915Z,26.03
2024-03-08T07:26:20.514Z,25.63
2024-03-08T07:28:48.433Z,26.90
2024-03-08T07:31:16.357Z,27.77
2024-03-08T07:33:44.400Z,27.00
2024-03-08T07:36:12.771Z,27.27
2024-03-08T07:38:40.901Z,24.70
2024-03-08T07:41:08.902Z,25.97
2024-03-08T07:43:36.872Z,26.17
2024-03-08T07:46:04.916Z,23.93
2024-03-08T07:48:33.036Z,22.80
2024-03-08T07:51:01.069Z,24.93
2024-03-08T07:53:29.053Z,27.57
2024-03-08T07:55:57.013Z,27.83
2024-03-08T07:58:25.103Z,25.97
2024-03-08T08:00:53.057Z,25.30
2024-03-08T08:03:22.384Z,25.13
2024-03-08T08:05:50.629Z,26.80
2024-03-08T08:08:18.669Z,22.90
2024-03-08T08:10:46.764Z,23.10
2024-03-08T08:13:14.751Z,23.53
2024-03-08T08:15:42.674Z,23.73
2024-03-08T08:18:11.328Z,22.97
2024-03-08T08:20:39.413Z,22.63
2024-03-08T08:23:07.544Z,25.63
2024-03-08T08:25:36.040Z,24.10
2024-03-08T08:28:05.762Z,23.27
2024-03-08T08:30:34.676Z,23.43
2024-03-08T08:33:03.016Z,24.07
2024-03-08T08:35:31.202Z,25.10
2024-03-08T08:38:00.240Z,22.47
2024-03-08T08:40:30.246Z,21.77
2024-03-08T08:43:01.764Z,24.37
2024-03-08T08:45:29.786Z,21.17
2024-03-08T08:47:57.915Z,23.03
2024-03-08T08:50:26.907Z,20.37
2024-03-08T08:52:55.537Z,20.30
2024-03-08T08:55:27.123Z,20.73
2024-03-08T08:57:57.692Z,21.17
2024-03-08T09:00:29.068Z,18.50
2024-03-08T09:02:59.384Z,19.27
2024-03-08T09:05:28.046Z,19.50
2024-03-08T09:07:56.605Z,19.90
2024-03-08T09:10:30.430Z,18.77
2024-03-08T09:13:01.096Z,19.83
2024-03-08T09:15:30.485Z,20.07
2024-03-08T09:18:00.679Z,19.13
2024-03-08T09:20:28.868Z,20.97
2024-03-08T09:22:57.349Z,18.83
2024-03-08T09:25:25.438Z,17.57
2024-03-08T09:27:53.352Z,16.97
2024-03-08T09:30:22.848Z,19.77
2024-03-08T09:32:52.853Z,20.10
2024-03-08T09:35:21.576Z,15.87
2024-03-08T09:37:53.267Z,18.40
2024-03-08T09:40:21.462Z,19.43
2024-03-08T09:42:50.869Z,17.43
2024-03-08T09:45:19.339Z,21.07
2024-03-08T09:47:48.241Z,21.00
2024-03-08T09:50:17.159Z,16.67
2024-03-08T09:52:47.271Z,18.10
2024-03-08T09:55:15.390Z,18.53
2024-03-08T09:58:07.659Z,16.33
2024-03-08T10:00:35.693Z,14.47
2024-03-08T10:03:04.597Z,15.50
2024-03-08T10:05:35.773Z,16.27
2024-03-08T10:08:04.084Z,16.57
2024-03-08T10:10:32.060Z,13.93
2024-03-08T10:13:01.133Z,15.63
2024-03-08T10:15:30.658Z,13.40
2024-03-08T10:17:59.184Z,14.63
2024-03-08T10:20:30.184Z,12.40
2024-03-08T10:23:07.157Z,13.50
2024-03-08T10:25:39.297Z,12.30
2024-03-08T10:28:07.882Z,13.30
2024-03-08T10:30:36.084Z,12.60
2024-03-08T10:33:06.799Z,12.63
2024-03-08T10:35:34.955Z,14.07
2024-03-08T10:38:05.177Z,13.20
2024-03-08T10:40:34.092Z,13.30
2024-03-08T10:43:05.552Z,11.90
2024-03-08T10:45:36.449Z,12.73
2024-03-08T10:48:24.976Z,11.50
2024-03-08T10:50:53.873Z,12.47
2024-03-08T10:53:22.649Z,12.20
2024-03-08T10:55:54.996Z,13.17
2024-03-08T10:58:28.238Z,12.27
2024-03-08T11:00:57.450Z,12.13
2024-03-08T11:03:48.011Z,13.10
2024-03-08T11:06:24.955Z,13.53
2024-03-08T11:08:53.111Z,12.80
2024-03-08T11:11:35.002Z,13.47
2024-03-08T11:14:04.817Z,11.47
2024-03-08T11:16:32.867Z,11.27
2024-03-08T11:19:25.422Z,11.97
2024-03-08T11:22:28.323Z,12.43
2024-03-08T11:25:01.500Z,10.83
2024-03-08T11:27:33.000Z,12.10
2024-03-08T11:30:25.564Z,11.63
2024-03-08T11:32:54.329Z,12.20
2024-03-08T11:35:24.730Z,12.93
2024-03-08T11:37:53.282Z,11.57
2024-03-08T11:40:22.528Z,12.30
2024-03-08T11:42:53.198Z,10.80
2024-03-08T11:45:22.915Z,11.83
2024-03-08T11:47:51.833Z,10.67
2024-03-08T11:50:22.405Z,11.40
2024-03-08T11:52:50.724Z,10.43
2024-03-08T11:55:21.908Z,10.37
2024-03-08T11:57:50.465Z,10.10
2024-03-08T12:00:24.106Z,10.37
2024-03-08T12:03:08.391Z,10.57
2024-03-08T12:05:36.750Z,9.33
2024-03-08T12:08:06.569Z,11.17
2024-03-08T12:10:36.432Z,11.43
2024-03-08T12:13:04.913Z,10.03
2024-03-08T12:15:35.583Z,10.53
2024-03-08T12:18:06.233Z,10.47
2024-03-08T12:20:34.329Z,10.00
2024-03-08T12:23:02.712Z,8.97
2024-03-08T12:25:38.174Z,9.43
2024-03-08T12:28:17.184Z,9.77
2024-03-08T12:30:54.333Z,8.20
2024-03-08T12:33:23.792Z,9.17
2024-03-08T12:35:56.904Z,9.70
2024-03-08T12:38:27.383Z,9.37
2024-03-08T12:41:03.290Z,9.47
2024-03-08T12:43:32.654Z,11.00
2024-03-08T12:46:01.083Z,14.87
2024-03-08T12:48:29.170Z,11.63
2024-03-08T12:50:57.137Z,13.83
2024-03-08T12:53:26.919Z,10.40
2024-03-08T12:55:57.789Z,12.33
2024-03-08T12:58:27.320Z,9.37
2024-03-08T13:00:55.364Z,9.80
2024-03-08T13:03:24.377Z,10.37
2024-03-08T13:05:52.728Z,10.53
2024-03-08T13:08:21.805Z,10.10
2024-03-08T13:10:50.019Z,11.97
2024-03-08T13:13:19.065Z,10.80
2024-03-08T13:15:47.134Z,11.40
2024-03-08T13:18:17.249Z,10.90
2024-03-08T13:20:50.597Z,11.63
2024-03-08T13:23:19.052Z,10.03
2024-03-08T13:25:49.078Z,10.80
2024-03-08T13:28:18.452Z,10.90
2024-03-08T13:30:47.015Z,12.47
2024-03-08T13:33:17.929Z,10.60
2024-03-08T13:35:50.542Z,10.73
2024-03-08T13:38:21.760Z,10.97
2024-03-08T13:40:50.444Z,12.43
2024-03-08T13:43:18.838Z,7.43
2024-03-08T13:45:48.226Z,11.20
2024-03-08T13:48:16.673Z,8.80
2024-03-08T13:50:44.615Z,9.93
2024-03-08T13:53:12.690Z,9.20
2024-03-08T13:55:42.262Z,8.63
2024-03-08T13:58:10.883Z,8.73
2024-03-08T14:00:39.752Z,12.00
2024-03-08T14:03:08.888Z,11.43
2024-03-08T14:05:37.020Z,11.97
2024-03-08T14:08:05.352Z,11.73
2024-03-08T14:10:33.331Z,11.57
2024-03-08T14:13:02.204Z,14.47
2024-03-08T14:15:31.216Z,12.90
2024-03-08T14:17:59.544Z,12.90
2024-03-08T14:20:27.590Z,13.00
2024-03-08T14:22:57.242Z,17.83
2024-03-08T14:25:26.196Z,12.20
2024-03-08T14:27:55.361Z,13.70
2024-03-08T14:30:42.548Z,13.33
2024-03-08T14:33:11.152Z,13.27
2024-03-08T14:35:39.822Z,12.93
2024-03-08T14:38:11.826Z,15.67
2024-03-08T14:40:40.157Z,12.33
2024-03-08T14:43:08.112Z,12.43
2024-03-08T14:45:36.425Z,13.43
2024-03-08T14:48:06.193Z,11.17
2024-03-08T14:50:34.861Z,8.57
2024-03-08T14:53:07.860Z,10.63
2024-03-08T14:55:36.529Z,8.70
2024-03-08T14:58:05.831Z,12.90
2024-03-08T15:00:37.060Z,8.27
2024-03-08T15:03:08.431Z,8.77
2024-03-08T15:05:39.921Z,9.73
2024-03-08T15:08:12.612Z,8.67
2024-03-08T15:10:46.358Z,8.90
2024-03-08T15:13:23.199Z,8.93
2024-03-08T15:15:59.034Z,11.17
2024-03-08T15:18:32.269Z,12.33
2024-03-08T15:21:00.416Z,12.60
2024-03-08T15:23:28.514Z,13.07
2024-03-08T15:25:56.618Z,14.87
2024-03-08T15:28:31.864Z,13.50
2024-03-08T15:31:06.606Z,15.07
2024-03-08T15:33:44.821Z,13.43
2024-03-08T15:36:15.707Z,12.77
2024-03-08T15:38:51.540Z,11.33
2024-03-08T15:41:22.421Z,10.67
2024-03-08T15:43:51.602Z,11.03
2024-03-08T15:46:24.145Z,8.60
2024-03-08T15:48:55.035Z,9.83
2024-03-08T15:51:23.135Z,8.40
2024-03-08T15:53:57.928Z,8.53
2024-03-08T15:56:27.609Z,8.67
2024-03-08T15:58:56.089Z,11.47
2024-03-08T16:01:26.248Z,10.10
2024-03-08T16:03:56.278Z,11.40
2024-03-08T16:06:26.383Z,11.83
2024-03-08T16:08:54.545Z,12.07
2024-03-08T16:11:23.667Z,12.20
2024-03-08T16:13:52.060Z,12.13
2024-03-08T16:16:20.572Z,13.73
2024-03-08T16:18:49.476Z,12.53
2024-03-08T16:21:18.212Z,15.17
2024-03-08T16:23:47.926Z,14.87
2024-03-08T16:26:16.921Z,12.60
2024-03-08T16:28:45.409Z,14.67
2024-03-08T16:31:16.200Z,12.57
2024-03-08T16:33:45.910Z,13.57
2024-03-08T16:36:15.320Z,14.50
2024-03-08T16:38:46.485Z,13.80
2024-03-08T16:41:15.614Z,13.73
2024-03-08T16:43:45.332Z,14.90
2024-03-08T16:46:15.027Z,15.10
2024-03-08T16:48:43.362Z,15.47
2024-03-08T16:51:11.684Z,16.33
2024-03-08T16:53:42.574Z,24.97
2024-03-08T16:56:14.245Z,27.00
2024-03-08T16:58:43.867Z,28.63
2024-03-08T17:01:12.495Z,29.50
2024-03-08T17:03:48.021Z,28.90
2024-03-08T17:06:24.669Z,38.50
2024-03-08T17:08:53.884Z,38.83
2024-03-08T17:11:22.437Z,29.67
2024-03-08T17:13:51.016Z,29.23
2024-03-08T17:16:21.081Z,30.20
2024-03-08T17:18:49.869Z,31.17
2024-03-08T17:21:17.961Z,38.57
2024-03-08T17:23:46.720Z,38.73
2024-03-08T17:26:14.884Z,38.13
2024-03-08T17:28:44.645Z,38.70
2024-03-08T17:31:13.460Z,41.63
2024-03-08T17:33:43.389Z,45.07
2024-03-08T17:36:12.966Z,47.33
2024-03-08T17:38:48.413Z,45.43
2024-03-08T17:41:24.802Z,51.20
2024-03-08T17:43:53.634Z,52.30
2024-03-08T17:46:21.971Z,53.57
2024-03-08T17:48:50.141Z,54.40
2024-03-08T17:51:18.125Z,54.73
2024-03-08T17:53:47.668Z,53.97
2024-03-08T17:56:16.498Z,50.23
2024-03-08T17:58:44.602Z,49.93
2024-03-08T18:01:13.693Z,45.17
2024-03-08T18:03:41.949Z,42.03
2024-03-08T18:06:10.792Z,41.20
2024-03-08T18:08:39.126Z,41.53
2024-03-08T18:11:09.614Z,48.33
2024-03-08T18:13:37.836Z,48.47
2024-03-08T18:16:08.948Z,49.63
2024-03-08T18:18:38.312Z,51.47
2024-03-08T18:21:13.767Z,46.93
2024-03-08T18:23:41.679Z,42.57
2024-03-08T18:26:09.680Z,40.33
2024-03-08T18:28:42.228Z,34.57
2024-03-08T18:31:10.600Z,34.10
2024-03-08T18:33:38.467Z,34.67
2024-03-08T18:36:08.154Z,35.63
2024-03-08T18:38:36.177Z,34.20
2024-03-08T18:41:04.315Z,35.13
2024-03-08T18:43:35.392Z,33.47
2024-03-08T18:46:05.612Z,40.47
2024-03-08T18:48:33.646Z,52.57
2024-03-08T18:51:02.332Z,56.53
2024-03-08T18:53:30.281Z,67.83
2024-03-08T18:55:58.376Z,76.53
2024-03-08T18:58:31.076Z,69.03
2024-03-08T19:01:06.957Z,55.80
2024-03-08T19:03:39.259Z,54.07
2024-03-08T19:06:07.987Z,73.20
2024-03-08T19:08:42.402Z,75.00
2024-03-08T19:11:10.474Z,66.03
2024-03-08T19:13:38.519Z,60.80
2024-03-08T19:16:07.345Z,58.93
2024-03-08T19:18:36.151Z,56.27
2024-03-08T19:21:04.201Z,53.17
2024-03-08T19:23:35.849Z,53.37
2024-03-08T19:26:04.080Z,57.70
2024-03-08T19:28:34.038Z,61.03
2024-03-08T19:31:03.637Z,56.70
2024-03-08T19:33:32.861Z,99.93
2024-03-08T19:36:01.889Z,118.83
2024-03-08T19:38:32.511Z,73.27
2024-03-08T19:41:00.615Z,83.97
2024-03-08T19:43:28.923Z,80.40
2024-03-08T19:45:59.453Z,51.00
2024-03-08T19:48:27.559Z,49.37
2024-03-08T19:50:56.864Z,54.57
2024-03-08T19:53:25.142Z,52.53
2024-03-08T19:55:54.732Z,49.33
2024-03-08T19:58:23.509Z,39.47
2024-03-08T20:00:51.898Z,37.80
2024-03-08T20:03:24.972Z,38.40
2024-03-08T20:05:56.964Z,39.90
2024-03-08T20:08:30.474Z,39.90
2024-03-08T20:11:05.182Z,37.83
2024-03-08T20:13:36.157Z,34.93
2024-03-08T20:16:05.586Z,34.47
2024-03-08T20:18:34.102Z,35.70
2024-03-08T20:21:02.747Z,34.90
2024-03-08T20:23:30.859Z,34.97
2024-03-08T20:25:58.869Z,34.73
2024-03-08T20:28:27.943Z,32.70
2024-03-08T20:30:56.164Z,31.90
2024-03-08T20:33:24.927Z,33.07
2024-03-08T20:35:52.889Z,39.70
2024-03-08T20:38:27.682Z,42.60
2024-03-08T20:40:55.750Z,44.23
2024-03-08T20:43:25.242Z,38.17
2024-03-08T20:45:54.007Z,35.27
2024-03-08T20:48:22.774Z,35.07
2024-03-08T20:50:53.028Z,32.60
2024-03-08T20:53:21.483Z,31.23
2024-03-08T20:55:50.836Z,33.27
2024-03-08T20:58:20.383Z,33.03
2024-03-08T21:01:00.444Z,29.73
2024-03-08T21:03:29.903Z,27.37
2024-03-08T21:05:59.808Z,29.17
2024-03-08T21:08:29.022Z,30.70
2024-03-08T21:10:58.376Z,30.80
2024-03-08T21:13:27.628Z,31.40
2024-03-08T21:15:56.846Z,29.73
2024-03-08T21:18:27.880Z,29.93
2024-03-08T21:20:57.084Z,30.70
2024-03-08T21:23:26.779Z,32.10
2024-03-08T21:25:55.289Z,38.27
2024-03-08T21:28:30.880Z,43.17
2024-03-08T21:31:02.038Z,31.30
2024-03-08T21:33:30.433Z,31.07
2024-03-08T21:36:00.641Z,34.03
2024-03-08T21:38:28.911Z,28.03
2024-03-08T21:41:02.817Z,25.00
2024-03-08T21:43:36.429Z,25.97
2024-03-08T21:46:05.523Z,24.87
2024-03-08T21:48:34.116Z,28.50
2024-03-08T21:51:02.466Z,28.00
2024-03-08T21:53:35.059Z,25.93
2024-03-08T21:56:04.899Z,25.87
2024-03-08T21:58:34.678Z,27.07
2024-03-08T22:01:02.845Z,26.00
2024-03-08T22:03:33.010Z,26.90
2024-03-08T22:06:01.151Z,26.03
2024-03-08T22:08:29.285Z,26.80
2024-03-08T22:10:57.825Z,28.23
2024-03-08T22:13:26.145Z,29.13
2024-03-08T22:15:54.188Z,31.53
2024-03-08T22:18:22.227Z,28.10
2024-03-08T22:20:50.225Z,26.10
2024-03-08T22:23:26.085Z,26.40
2024-03-08T22:25:55.526Z,26.37
2024-03-08T22:28:27.355Z,25.10
2024-03-08T22:30:55.554Z,24.77
2024-03-08T22:33:26.357Z,25.43
2024-03-08T22:35:55.322Z,25.57
2024-03-08T22:38:23.426Z,26.13
2024-03-08T22:40:51.603Z,26.47
2024-03-08T22:43:19.598Z,27.00
2024-03-08T22:45:50.195Z,30.67
2024-03-08T22:48:18.404Z,28.23
2024-03-08T22:50:46.464Z,27.10
2024-03-08T22:53:15.226Z,27.93
2024-03-08T22:55:43.722Z,28.27
2024-03-08T22:58:11.733Z,27.00
2024-03-08T23:00:39.640Z,27.83
2024-03-08T23:03:11.789Z,28.37
2024-03-08T23:05:42.333Z,28.13
2024-03-08T23:08:10.659Z,26.77
2024-03-08T23:10:40.792Z,26.43
2024-03-08T23:13:11.127Z,27.43
2024-03-08T23:15:42.873Z,27.83
2024-03-08T23:18:11.924Z,29.07
2024-03-08T23:20:46.130Z,29.87
2024-03-08T23:23:14.386Z,29.87
2024-03-08T23:25:42.686Z,31.53
2024-03-08T23:28:13.857Z,33.20
2024-03-08T23:30:44.477Z,34.30
2024-03-08T23:33:14.400Z,35.10
2024-03-08T23:35:45.208Z,34.10
2024-03-08T23:38:13.470Z,31.60
2024-03-08T23:40:41.858Z,31.50
2024-03-08T23:43:09.816Z,30.67
2024-03-08T23:45:39.560Z,29.13
2024-03-08T23:48:08.415Z,30.13
2024-03-08T23:50:38.730Z,28.37
2024-03-08T23:53:08.084Z,29.00
2024-03-08T23:55:38.089Z,29.70
2024-03-08T23:58:11.021Z,30.17
